Terminal Aerodrome Forecast
Issued by NWS

Home | Current Version | Previous Version | Graphics & Text | Print | Product List | Glossary On
Versions: 1 2 3 4 5 6 7 8 9 10 11 12
000
FTUS43 KIWX 251120
TAFSBN
TAF
KSBN 251120Z 2512/2612 14008KT P6SM BKN060
     FM260000 16008KT P6SM VCTS SCT050CB BKN100
     FM260200 18010KT 5SM -SHRA BR OVC040
     FM260600 25010KT P6SM OVC020=

USA.gov is the U.S. government's official web portal to all federal, state and local government web resources and services.